Time;durP1;ratioP1;P1;durP2;ratioP2;P2;SDS_P1;SDS_P2;PMS_P1;PMS_P2;Temp;Humidity;BMP_temperature;BMP_pressure;BME280_temperature;BME280_humidity;BME280_pressure;Samples;Min_cycle;Max_cycle;Signal;HPM_P1;HPM_P2
2022/05/06 00:00:35;;;;;;;276.80;50.45;;;;;;;;;;5082878;28;20532;-68
2022/05/06 00:03:01;;;;;;;285.08;49.63;;;;;;;;;;5080591;28;20028;-69
2022/05/06 00:05:27;;;;;;;299.40;48.08;;;;;;;;;;5081619;28;20037;-68
2022/05/06 00:07:53;;;;;;;367.25;47.53;;;;;;;;;;5085347;28;20422;-69
2022/05/06 00:10:19;;;;;;;285.70;50.05;;;;;;;;;;5085323;28;20056;-69
2022/05/06 00:12:45;;;;;;;303.92;45.67;;;;;;;;;;5082262;28;20129;-70
2022/05/06 00:15:12;;;;;;;414.73;52.38;;;;;;;;;;5082471;28;20102;-69
2022/05/06 00:17:37;;;;;;;489.77;53.08;;;;;;;;;;5084721;28;20027;-69
2022/05/06 00:20:04;;;;;;;421.70;55.17;;;;;;;;;;5084428;28;20024;-69
2022/05/06 00:22:30;;;;;;;267.70;51.70;;;;;;;;;;5078816;28;20058;-69
2022/05/06 00:24:56;;;;;;;341.00;53.30;;;;;;;;;;5086394;28;20060;-69
2022/05/06 00:27:22;;;;;;;584.05;55.97;;;;;;;;;;5084445;28;20038;-69
2022/05/06 00:29:48;;;;;;;432.50;53.60;;;;;;;;;;5086185;28;20056;-69
2022/05/06 00:32:14;;;;;;;552.55;55.55;;;;;;;;;;5083867;28;20463;-68
2022/05/06 00:34:40;;;;;;;608.17;55.60;;;;;;;;;;5083921;28;20027;-69
2022/05/06 00:37:06;;;;;;;568.30;50.90;;;;;;;;;;5082962;28;20256;-69
2022/05/06 00:39:32;;;;;;;289.25;46.75;;;;;;;;;;5084778;28;20025;-68
2022/05/06 00:41:58;;;;;;;693.78;60.40;;;;;;;;;;5084862;28;20481;-69
2022/05/06 00:44:25;;;;;;;344.33;45.88;;;;;;;;;;5085515;28;20028;-69
2022/05/06 00:46:52;;;;;;;346.35;48.30;;;;;;;;;;5084191;28;20032;-69
2022/05/06 00:49:19;;;;;;;406.17;48.20;;;;;;;;;;5085045;28;20765;-68
2022/05/06 00:51:45;;;;;;;304.10;48.05;;;;;;;;;;5078472;28;20113;-68
2022/05/06 00:54:13;;;;;;;407.13;49.88;;;;;;;;;;5080803;28;20020;-69
2022/05/06 00:56:39;;;;;;;391.80;48.50;;;;;;;;;;5081066;28;20035;-70
2022/05/06 00:59:07;;;;;;;479.55;50.08;;;;;;;;;;5086525;28;20056;-69
2022/05/06 01:01:36;;;;;;;307.25;48.13;;;;;;;;;;5083073;28;20024;-70
2022/05/06 01:04:06;;;;;;;369.05;49.13;;;;;;;;;;5083717;28;20508;-68
2022/05/06 01:06:33;;;;;;;369.52;50.33;;;;;;;;;;5082484;28;20028;-69
2022/05/06 01:08:59;;;;;;;505.38;51.53;;;;;;;;;;5086343;28;20043;-68
2022/05/06 01:11:26;;;;;;;556.40;53.58;;;;;;;;;;5092839;28;20024;-69
2022/05/06 01:13:55;;;;;;;378.15;48.17;;;;;;;;;;5084970;28;20044;-69
2022/05/06 01:16:21;;;;;;;259.70;44.70;;;;;;;;;;5089896;28;20028;-68
2022/05/06 01:18:48;;;;;;;543.67;48.70;;;;;;;;;;5093982;28;20042;-68
2022/05/06 01:21:21;;;;;;;401.45;45.05;;;;;;;;;;5096521;28;20068;-68
2022/05/06 01:23:47;;;;;;;696.03;54.58;;;;;;;;;;5091053;28;20032;-69
2022/05/06 01:26:13;;;;;;;368.42;41.78;;;;;;;;;;5084903;28;20516;-69
2022/05/06 01:28:39;;;;;;;654.53;50.60;;;;;;;;;;5085236;28;20429;-69
2022/05/06 01:31:06;;;;;;;467.92;42.63;;;;;;;;;;5087152;28;20115;-68
2022/05/06 01:33:33;;;;;;;290.77;42.58;;;;;;;;;;5080117;28;20059;-69
2022/05/06 01:36:00;;;;;;;368.02;42.25;;;;;;;;;;5082240;28;20030;-70
2022/05/06 01:38:49;;;;;;;377.20;44.90;;;;;;;;;;5082835;28;20119;-69
2022/05/06 01:41:18;;;;;;;656.45;49.53;;;;;;;;;;5080669;28;20024;-70
2022/05/06 01:43:47;;;;;;;678.92;51.35;;;;;;;;;;5086700;28;20402;-70
2022/05/06 01:46:14;;;;;;;823.80;53.95;;;;;;;;;;5082431;28;20107;-70
2022/05/06 01:48:42;;;;;;;881.80;54.72;;;;;;;;;;5082633;28;20163;-69
2022/05/06 01:51:14;;;;;;;694.55;49.00;;;;;;;;;;5074116;28;20552;-69
2022/05/06 01:53:40;;;;;;;589.42;48.42;;;;;;;;;;5084476;28;20164;-69
2022/05/06 01:56:09;;;;;;;715.80;49.05;;;;;;;;;;5093725;28;20103;-68
2022/05/06 01:58:36;;;;;;;496.55;47.72;;;;;;;;;;5081344;28;20032;-70
2022/05/06 02:01:02;;;;;;;290.85;42.22;;;;;;;;;;5063153;28;20024;-69
2022/05/06 02:06:13;;;;;;;593.20;47.40;;;;;;;;;;5091887;28;20115;-69
2022/05/06 02:08:39;;;;;;;529.97;44.85;;;;;;;;;;5083713;28;20029;-68
2022/05/06 02:11:06;;;;;;;574.00;50.00;;;;;;;;;;5084606;28;20461;-69
2022/05/06 02:13:33;;;;;;;251.57;43.13;;;;;;;;;;5084987;28;20115;-69
2022/05/06 02:15:59;;;;;;;412.83;44.00;;;;;;;;;;5086008;28;20126;-68
2022/05/06 02:18:29;;;;;;;268.38;42.45;;;;;;;;;;5085767;28;20055;-69
2022/05/06 02:20:58;;;;;;;300.45;43.13;;;;;;;;;;5088821;28;20020;-70
2022/05/06 02:23:24;;;;;;;382.98;42.70;;;;;;;;;;5084931;28;20089;-68
2022/05/06 02:25:50;;;;;;;281.52;42.30;;;;;;;;;;5090737;28;20128;-70
2022/05/06 02:28:17;;;;;;;307.10;40.50;;;;;;;;;;5086090;28;20108;-69
2022/05/06 02:33:30;;;;;;;384.45;39.90;;;;;;;;;;5086578;28;20166;-69
2022/05/06 02:35:57;;;;;;;291.90;38.30;;;;;;;;;;5084763;28;20028;-69
2022/05/06 02:38:24;;;;;;;216.75;37.22;;;;;;;;;;5087913;28;20033;-69
2022/05/06 02:40:50;;;;;;;297.88;37.88;;;;;;;;;;5088444;28;20024;-68
2022/05/06 02:43:17;;;;;;;279.20;35.88;;;;;;;;;;5086564;28;20055;-70
2022/05/06 02:45:43;;;;;;;179.52;32.38;;;;;;;;;;5084282;28;20055;-69
2022/05/06 02:48:09;;;;;;;256.10;32.63;;;;;;;;;;5086998;28;20063;-69
2022/05/06 02:50:36;;;;;;;255.90;31.42;;;;;;;;;;5089596;28;20043;-68
2022/05/06 02:53:02;;;;;;;198.63;29.27;;;;;;;;;;5069004;28;20040;-69
2022/05/06 02:55:28;;;;;;;291.50;31.45;;;;;;;;;;5077028;28;20111;-68
2022/05/06 02:57:54;;;;;;;302.80;30.52;;;;;;;;;;5086365;28;20127;-69
2022/05/06 03:00:20;;;;;;;233.60;28.65;;;;;;;;;;5086114;28;20040;-69
2022/05/06 03:02:47;;;;;;;251.10;30.75;;;;;;;;;;5084870;28;20123;-69
2022/05/06 03:05:13;;;;;;;114.68;29.88;;;;;;;;;;5085356;28;20024;-69
2022/05/06 03:07:40;;;;;;;158.02;29.77;;;;;;;;;;5085500;28;20020;-70
2022/05/06 03:10:06;;;;;;;182.52;31.40;;;;;;;;;;5089823;28;20114;-69
2022/05/06 03:12:34;;;;;;;266.45;32.20;;;;;;;;;;5083843;28;20497;-70
2022/05/06 03:15:03;;;;;;;197.32;31.80;;;;;;;;;;5079825;28;20579;-68
2022/05/06 03:17:30;;;;;;;324.42;36.88;;;;;;;;;;5087544;28;20111;-68
2022/05/06 03:19:56;;;;;;;173.77;31.75;;;;;;;;;;5084328;28;20106;-70
2022/05/06 03:22:23;;;;;;;190.13;32.78;;;;;;;;;;5088208;28;20036;-69
2022/05/06 03:24:49;;;;;;;135.85;34.75;;;;;;;;;;5083751;28;20032;-69
2022/05/06 03:30:00;;;;;;;196.88;33.83;;;;;;;;;;5096194;28;20050;-69
2022/05/06 03:32:28;;;;;;;226.60;33.53;;;;;;;;;;5080727;28;20669;-69
2022/05/06 03:34:54;;;;;;;275.48;35.03;;;;;;;;;;5085009;28;20032;-69
2022/05/06 03:37:20;;;;;;;117.65;31.80;;;;;;;;;;5092566;28;20107;-68
2022/05/06 03:39:46;;;;;;;269.20;34.30;;;;;;;;;;5078966;28;20033;-69
2022/05/06 03:42:13;;;;;;;263.98;33.97;;;;;;;;;;5087287;28;20110;-70
2022/05/06 03:44:40;;;;;;;255.55;32.97;;;;;;;;;;5086619;28;20046;-69
2022/05/06 03:47:07;;;;;;;421.83;33.40;;;;;;;;;;5089246;28;20036;-70
2022/05/06 03:49:33;;;;;;;180.18;27.63;;;;;;;;;;5085998;28;20032;-69
2022/05/06 03:52:00;;;;;;;498.52;38.42;;;;;;;;;;5086670;28;20043;-70
2022/05/06 03:54:26;;;;;;;352.80;31.45;;;;;;;;;;5086121;28;20039;-68
2022/05/06 03:56:52;;;;;;;204.23;26.77;;;;;;;;;;5082390;28;20124;-68
2022/05/06 03:59:19;;;;;;;172.90;27.45;;;;;;;;;;5085832;28;20153;-69
2022/05/06 04:01:45;;;;;;;143.70;26.92;;;;;;;;;;5089501;28;20032;-69
2022/05/06 04:04:11;;;;;;;91.57;27.10;;;;;;;;;;5083266;28;20131;-68
2022/05/06 04:06:37;;;;;;;202.73;31.15;;;;;;;;;;5085205;28;20105;-70
2022/05/06 04:09:03;;;;;;;134.93;26.58;;;;;;;;;;5089938;28;20070;-68
2022/05/06 04:11:29;;;;;;;122.70;26.63;;;;;;;;;;5089615;28;20024;-70
2022/05/06 04:13:55;;;;;;;128.18;27.13;;;;;;;;;;5084720;28;20481;-69
2022/05/06 04:16:24;;;;;;;73.68;22.80;;;;;;;;;;5087663;28;20034;-69
2022/05/06 04:18:50;;;;;;;113.88;24.02;;;;;;;;;;5083748;28;20028;-70
2022/05/06 04:24:01;;;;;;;151.55;20.65;;;;;;;;;;5087454;28;20120;-70
2022/05/06 04:26:27;;;;;;;142.40;22.58;;;;;;;;;;5081803;28;20074;-70
2022/05/06 04:28:53;;;;;;;148.50;20.98;;;;;;;;;;5080979;28;20119;-69
2022/05/06 04:31:19;;;;;;;47.30;18.20;;;;;;;;;;5068355;28;20512;-69
2022/05/06 04:33:45;;;;;;;86.70;18.73;;;;;;;;;;5085493;28;20137;-69
2022/05/06 04:36:11;;;;;;;129.52;19.27;;;;;;;;;;5086240;28;20036;-67
2022/05/06 04:38:37;;;;;;;122.20;18.55;;;;;;;;;;5086434;28;20515;-69
2022/05/06 04:41:03;;;;;;;132.95;18.13;;;;;;;;;;5083856;28;20036;-70
2022/05/06 04:43:30;;;;;;;180.65;18.52;;;;;;;;;;5086249;28;20064;-69
2022/05/06 04:45:56;;;;;;;107.07;17.90;;;;;;;;;;5086616;28;20118;-70
2022/05/06 04:48:23;;;;;;;100.10;19.67;;;;;;;;;;5083979;28;20036;-68
2022/05/06 04:50:49;;;;;;;77.75;17.13;;;;;;;;;;5085829;28;20032;-69
2022/05/06 04:53:15;;;;;;;84.03;18.27;;;;;;;;;;5083254;28;20044;-69
2022/05/06 04:55:42;;;;;;;268.27;22.80;;;;;;;;;;5086408;28;20028;-70
2022/05/06 04:58:09;;;;;;;60.90;18.58;;;;;;;;;;5078556;28;20028;-69
2022/05/06 05:00:36;;;;;;;83.78;21.15;;;;;;;;;;5086631;28;20032;-69
2022/05/06 05:03:02;;;;;;;124.72;20.00;;;;;;;;;;5086713;28;20032;-70
2022/05/06 05:05:28;;;;;;;142.07;21.40;;;;;;;;;;5082479;28;20153;-68
2022/05/06 05:07:55;;;;;;;54.42;17.98;;;;;;;;;;5078558;28;20094;-68
2022/05/06 05:10:24;;;;;;;61.63;19.20;;;;;;;;;;5080728;28;20080;-69
2022/05/06 05:12:50;;;;;;;147.70;21.42;;;;;;;;;;5085621;28;20032;-68
2022/05/06 05:15:17;;;;;;;105.47;19.20;;;;;;;;;;5077346;28;20028;-68
2022/05/06 05:17:47;;;;;;;102.63;20.48;;;;;;;;;;5084052;28;20098;-68
2022/05/06 05:20:13;;;;;;;149.77;19.80;;;;;;;;;;5082060;28;20108;-70
2022/05/06 05:22:39;;;;;;;122.38;19.40;;;;;;;;;;5085327;28;20036;-70
2022/05/06 05:25:06;;;;;;;139.77;20.77;;;;;;;;;;5083439;28;20052;-70
2022/05/06 05:27:32;;;;;;;59.28;18.52;;;;;;;;;;5083605;28;20135;-69
2022/05/06 05:29:58;;;;;;;91.75;19.63;;;;;;;;;;5088262;28;20101;-69
2022/05/06 05:32:25;;;;;;;93.80;19.80;;;;;;;;;;5082656;28;20089;-71
2022/05/06 05:34:51;;;;;;;84.63;19.42;;;;;;;;;;5071573;28;20371;-71
2022/05/06 05:37:17;;;;;;;70.38;19.38;;;;;;;;;;5080008;28;20032;-69
2022/05/06 05:39:43;;;;;;;48.28;18.85;;;;;;;;;;5079259;28;20051;-69
2022/05/06 05:42:10;;;;;;;73.90;19.02;;;;;;;;;;5085205;28;20024;-69
2022/05/06 05:50:09;;;;;;;48.72;17.10;;;;;;;;;;5076001;28;20051;-69
2022/05/06 05:52:35;;;;;;;96.47;19.25;;;;;;;;;;5089279;28;20060;-69
2022/05/06 05:55:01;;;;;;;95.95;17.85;;;;;;;;;;5085523;28;20119;-69
2022/05/06 05:57:27;;;;;;;106.53;18.55;;;;;;;;;;5084836;28;20032;-70
2022/05/06 05:59:54;;;;;;;140.55;20.98;;;;;;;;;;5088440;28;20020;-70
2022/05/06 06:02:20;;;;;;;45.05;14.65;;;;;;;;;;5081050;28;20536;-69
2022/05/06 06:04:46;;;;;;;129.20;15.20;;;;;;;;;;5089449;28;20035;-71
2022/05/06 06:07:12;;;;;;;73.43;11.98;;;;;;;;;;5078273;28;20035;-69
2022/05/06 06:09:38;;;;;;;71.97;11.77;;;;;;;;;;5084326;28;20055;-69
2022/05/06 06:12:04;;;;;;;25.13;12.50;;;;;;;;;;5086472;28;20044;-69
2022/05/06 06:14:31;;;;;;;58.72;12.80;;;;;;;;;;5088948;28;20058;-68
2022/05/06 06:16:57;;;;;;;51.13;13.25;;;;;;;;;;5081859;28;20028;-77
2022/05/06 06:19:23;;;;;;;144.13;16.45;;;;;;;;;;5084783;28;20393;-77
2022/05/06 06:21:49;;;;;;;68.10;14.13;;;;;;;;;;5085395;28;20024;-76
2022/05/06 06:24:15;;;;;;;39.50;13.38;;;;;;;;;;5080548;28;20055;-77
2022/05/06 06:26:41;;;;;;;48.60;14.50;;;;;;;;;;5085918;28;20090;-76
2022/05/06 06:29:07;;;;;;;47.85;13.65;;;;;;;;;;5084523;28;20032;-77
2022/05/06 06:31:33;;;;;;;24.65;13.07;;;;;;;;;;5088885;28;20032;-77
2022/05/06 06:34:00;;;;;;;48.03;14.48;;;;;;;;;;5085103;28;20495;-76
2022/05/06 06:36:26;;;;;;;28.27;12.82;;;;;;;;;;5086222;28;20332;-75
2022/05/06 06:38:52;;;;;;;19.92;13.43;;;;;;;;;;5083769;28;20086;-77
2022/05/06 06:41:20;;;;;;;28.08;13.52;;;;;;;;;;5086659;28;20034;-76
2022/05/06 06:43:46;;;;;;;47.65;13.90;;;;;;;;;;5084567;28;20119;-76
2022/05/06 06:46:13;;;;;;;25.15;13.32;;;;;;;;;;5088356;28;20030;-77
2022/05/06 06:48:40;;;;;;;28.25;11.77;;;;;;;;;;5084957;28;20024;-78
2022/05/06 06:51:06;;;;;;;17.25;11.93;;;;;;;;;;5088075;28;20854;-78
2022/05/06 06:53:32;;;;;;;27.38;11.73;;;;;;;;;;5081054;28;20125;-77
2022/05/06 06:55:58;;;;;;;17.23;11.48;;;;;;;;;;5079872;28;20117;-77
2022/05/06 06:58:26;;;;;;;24.20;11.88;;;;;;;;;;5083775;28;20044;-75
2022/05/06 07:00:53;;;;;;;16.52;11.70;;;;;;;;;;5085661;28;20020;-76
2022/05/06 07:03:20;;;;;;;19.23;11.82;;;;;;;;;;5083384;28;20036;-75
2022/05/06 07:14:00;;;;;;;14.57;11.00;;;;;;;;;;5086620;28;20113;-76
2022/05/06 07:16:27;;;;;;;15.38;11.25;;;;;;;;;;5088967;28;20116;-75
2022/05/06 07:18:53;;;;;;;14.05;11.35;;;;;;;;;;5088741;28;20032;-75
2022/05/06 07:21:19;;;;;;;20.70;12.48;;;;;;;;;;5088314;28;20043;-75
2022/05/06 07:23:45;;;;;;;15.88;11.50;;;;;;;;;;5068691;28;20063;-77
2022/05/06 07:26:12;;;;;;;16.35;11.27;;;;;;;;;;5070375;28;20548;-77
2022/05/06 07:28:38;;;;;;;16.40;12.25;;;;;;;;;;5089927;28;20111;-75
2022/05/06 07:31:05;;;;;;;19.55;14.13;;;;;;;;;;5090328;28;20089;-76
2022/05/06 07:33:31;;;;;;;18.35;13.68;;;;;;;;;;5090577;28;20024;-75
2022/05/06 07:35:57;;;;;;;16.02;12.95;;;;;;;;;;5090220;28;20016;-75
2022/05/06 07:38:23;;;;;;;15.65;11.85;;;;;;;;;;5097757;28;20027;-73
2022/05/06 07:40:49;;;;;;;13.27;11.25;;;;;;;;;;5089607;28;20099;-77
2022/05/06 07:43:15;;;;;;;13.25;10.90;;;;;;;;;;5072076;28;20044;-77
2022/05/06 07:45:41;;;;;;;17.48;11.63;;;;;;;;;;5088493;28;20032;-77
2022/05/06 07:48:08;;;;;;;15.23;11.63;;;;;;;;;;5088797;28;20531;-77
2022/05/06 07:50:37;;;;;;;17.67;11.95;;;;;;;;;;5089502;28;20047;-77
2022/05/06 07:53:03;;;;;;;16.85;12.55;;;;;;;;;;5088434;28;20047;-76
2022/05/06 07:55:29;;;;;;;19.60;11.93;;;;;;;;;;5090413;28;20032;-76
2022/05/06 07:57:57;;;;;;;12.60;10.40;;;;;;;;;;5089256;28;20028;-75
2022/05/06 08:00:24;;;;;;;12.15;10.80;;;;;;;;;;5089840;28;20020;-77
2022/05/06 08:05:35;;;;;;;12.40;9.35;;;;;;;;;;5090841;28;20094;-76
2022/05/06 08:08:01;;;;;;;11.80;9.45;;;;;;;;;;5088940;28;20059;-75
2022/05/06 08:10:27;;;;;;;11.00;8.20;;;;;;;;;;5088755;28;20235;-75
2022/05/06 08:12:53;;;;;;;10.32;8.23;;;;;;;;;;5088237;28;20032;-75
2022/05/06 08:15:19;;;;;;;10.73;8.23;;;;;;;;;;5088423;28;20520;-75
2022/05/06 08:17:45;;;;;;;11.52;8.98;;;;;;;;;;5089747;28;20393;-77
2022/05/06 08:20:12;;;;;;;11.20;9.55;;;;;;;;;;5090243;28;20020;-76
2022/05/06 08:22:38;;;;;;;12.25;9.80;;;;;;;;;;5089341;28;20039;-76
2022/05/06 08:25:08;;;;;;;12.70;8.77;;;;;;;;;;5090063;28;20016;-77
2022/05/06 08:27:41;;;;;;;12.13;9.00;;;;;;;;;;5090705;28;20162;-75
2022/05/06 08:30:08;;;;;;;11.82;9.10;;;;;;;;;;5088840;28;20126;-76
2022/05/06 08:32:34;;;;;;;12.60;8.90;;;;;;;;;;5089470;28;20024;-77
2022/05/06 08:35:00;;;;;;;10.93;9.02;;;;;;;;;;5089609;28;20024;-76
2022/05/06 08:37:26;;;;;;;12.32;8.52;;;;;;;;;;5088600;28;20142;-77
2022/05/06 08:39:52;;;;;;;11.45;8.98;;;;;;;;;;5089662;28;20503;-76
2022/05/06 08:42:19;;;;;;;13.30;10.25;;;;;;;;;;5089341;28;20055;-77
2022/05/06 08:53:12;;;;;;;13.85;9.55;;;;;;;;;;5088959;28;20055;-76
2022/05/06 08:55:38;;;;;;;12.07;9.85;;;;;;;;;;5088094;28;20155;-76
2022/05/06 08:58:06;;;;;;;16.85;10.70;;;;;;;;;;5088581;28;20544;-76
2022/05/06 09:00:32;;;;;;;15.00;10.35;;;;;;;;;;5089508;28;20024;-76
2022/05/06 09:02:58;;;;;;;13.13;10.50;;;;;;;;;;5087918;28;20119;-77
2022/05/06 09:05:24;;;;;;;17.30;11.95;;;;;;;;;;5090200;28;20024;-77
2022/05/06 09:07:56;;;;;;;15.50;9.73;;;;;;;;;;5089214;28;20184;-75
2022/05/06 09:10:23;;;;;;;12.85;10.20;;;;;;;;;;5089597;28;20031;-76
2022/05/06 09:12:52;;;;;;;14.00;10.30;;;;;;;;;;5098615;28;20081;-76
2022/05/06 09:18:05;;;;;;;24.65;10.68;;;;;;;;;;5091346;28;20062;-76
2022/05/06 09:20:32;;;;;;;16.50;11.48;;;;;;;;;;5088639;28;20027;-76
2022/05/06 09:22:58;;;;;;;13.25;9.90;;;;;;;;;;5087979;28;20409;-75
2022/05/06 09:25:46;;;;;;;10.95;9.15;;;;;;;;;;5089096;28;20047;-77
2022/05/06 09:28:21;;;;;;;17.15;10.52;;;;;;;;;;5098921;28;20015;-77
2022/05/06 09:31:07;;;;;;;14.02;10.38;;;;;;;;;;5113633;28;20024;-77
2022/05/06 09:33:35;;;;;;;10.55;8.90;;;;;;;;;;5112588;28;20489;-75
2022/05/06 09:36:21;;;;;;;11.52;8.40;;;;;;;;;;5071706;28;20028;-76
2022/05/06 09:39:14;;;;;;;10.50;7.22;;;;;;;;;;5086488;28;20105;-75
2022/05/06 09:41:41;;;;;;;12.07;8.32;;;;;;;;;;5077559;28;20036;-75
2022/05/06 09:44:08;;;;;;;11.65;7.43;;;;;;;;;;5087140;28;20603;-76
2022/05/06 09:46:34;;;;;;;9.23;7.47;;;;;;;;;;5092856;28;20024;-74
2022/05/06 09:49:01;;;;;;;11.90;7.60;;;;;;;;;;5091108;28;20043;-77
2022/05/06 09:51:28;;;;;;;8.70;6.82;;;;;;;;;;5087834;28;20440;-75
2022/05/06 09:53:55;;;;;;;8.77;7.43;;;;;;;;;;5083228;28;20062;-74
2022/05/06 09:56:22;;;;;;;9.73;7.40;;;;;;;;;;5086648;28;20111;-76
2022/05/06 09:58:51;;;;;;;9.77;7.47;;;;;;;;;;5090896;28;20718;-75
2022/05/06 10:01:18;;;;;;;11.75;8.35;;;;;;;;;;5088626;28;20119;-76
2022/05/06 10:03:44;;;;;;;8.93;7.78;;;;;;;;;;5087971;28;20028;-75
2022/05/06 10:06:10;;;;;;;11.52;7.90;;;;;;;;;;5088441;28;20032;-77
2022/05/06 10:08:43;;;;;;;10.45;7.53;;;;;;;;;;5092668;28;20465;-76
2022/05/06 10:11:12;;;;;;;9.85;7.78;;;;;;;;;;5089100;28;20036;-78
2022/05/06 10:13:43;;;;;;;10.88;8.00;;;;;;;;;;5089751;28;20081;-76
2022/05/06 10:16:10;;;;;;;10.35;8.38;;;;;;;;;;5088571;28;20119;-78
2022/05/06 10:18:40;;;;;;;11.63;7.68;;;;;;;;;;5089178;28;20020;-77
2022/05/06 10:21:06;;;;;;;11.60;9.20;;;;;;;;;;5091758;28;20095;-76
2022/05/06 10:23:46;;;;;;;14.02;9.18;;;;;;;;;;5090519;28;20036;-75
2022/05/06 10:26:31;;;;;;;12.18;9.73;;;;;;;;;;5081606;28;20048;-76
2022/05/06 10:34:30;;;;;;;16.48;10.45;;;;;;;;;;5082970;28;20050;-77
2022/05/06 10:36:57;;;;;;;15.07;10.67;;;;;;;;;;5082212;28;20438;-77
2022/05/06 10:39:24;;;;;;;12.93;10.80;;;;;;;;;;5083968;28;20028;-78
2022/05/06 10:42:02;;;;;;;14.35;10.68;;;;;;;;;;5077444;28;20119;-80
2022/05/06 10:44:45;;;;;;;12.88;10.55;;;;;;;;;;5085509;28;20113;-79
2022/05/06 10:47:11;;;;;;;14.15;11.50;;;;;;;;;;5085652;28;20591;-78
2022/05/06 10:49:40;;;;;;;14.50;11.73;;;;;;;;;;5087237;28;20093;-80
2022/05/06 10:52:25;;;;;;;14.55;11.30;;;;;;;;;;5083345;28;20151;-78
2022/05/06 10:54:55;;;;;;;16.55;11.93;;;;;;;;;;5083743;28;20034;-77
2022/05/06 10:57:25;;;;;;;14.00;11.30;;;;;;;;;;5079599;28;20054;-77
2022/05/06 10:59:51;;;;;;;20.17;10.73;;;;;;;;;;5083092;28;20028;-78
2022/05/06 11:02:17;;;;;;;15.93;10.25;;;;;;;;;;5087851;28;20043;-76
2022/05/06 11:04:56;;;;;;;16.75;10.55;;;;;;;;;;5088422;28;20039;-77
2022/05/06 11:07:22;;;;;;;13.07;10.02;;;;;;;;;;5082309;28;20052;-77
2022/05/06 11:09:49;;;;;;;12.75;10.00;;;;;;;;;;5083825;28;20504;-77
2022/05/06 11:12:47;;;;;;;13.00;9.95;;;;;;;;;;5086810;28;20039;-76
2022/05/06 11:15:32;;;;;;;14.48;10.82;;;;;;;;;;5052676;28;20477;-79
2022/05/06 11:18:04;;;;;;;18.10;12.90;;;;;;;;;;5091734;28;20096;-77
2022/05/06 11:20:34;;;;;;;16.58;12.35;;;;;;;;;;5080871;28;20478;-77
2022/05/06 11:23:00;;;;;;;;;;;;;;;;;;5085084;28;20447;-77
2022/05/06 11:25:32;;;;;;;18.80;13.40;;;;;;;;;;5086563;28;19925;-78
2022/05/06 11:27:59;;;;;;;17.35;12.50;;;;;;;;;;5091853;28;20047;-76
2022/05/06 11:30:27;;;;;;;14.88;10.52;;;;;;;;;;5081778;28;20708;-78
2022/05/06 11:33:01;;;;;;;14.15;10.73;;;;;;;;;;5080947;28;21256;-79
2022/05/06 11:35:29;;;;;;;17.08;12.52;;;;;;;;;;5077728;28;20147;-80
2022/05/06 11:37:55;;;;;;;16.88;11.82;;;;;;;;;;5085598;28;20039;-76
2022/05/06 11:42:51;;;;;;;18.52;13.63;;;;;;;;;;5086733;28;20632;-77
2022/05/06 11:48:06;;;;;;;20.92;15.18;;;;;;;;;;5085684;28;20043;-78
2022/05/06 11:50:33;;;;;;;19.88;15.57;;;;;;;;;;5085174;28;20461;-75
2022/05/06 11:53:01;;;;;;;22.38;15.63;;;;;;;;;;5085096;28;20040;-77
2022/05/06 11:55:28;;;;;;;18.98;14.88;;;;;;;;;;5079422;28;20184;-80
2022/05/06 11:57:56;;;;;;;19.48;15.50;;;;;;;;;;5080746;28;20048;-76
2022/05/06 12:00:23;;;;;;;21.88;16.40;;;;;;;;;;5081463;28;20024;-75
2022/05/06 12:02:49;;;;;;;17.45;15.05;;;;;;;;;;5077496;28;20119;-77
2022/05/06 12:05:16;;;;;;;22.73;17.00;;;;;;;;;;5086672;28;20036;-77
2022/05/06 12:07:43;;;;;;;21.45;17.83;;;;;;;;;;5081439;28;20034;-76
2022/05/06 12:10:10;;;;;;;26.10;16.17;;;;;;;;;;5080291;28;20066;-78
2022/05/06 12:12:56;;;;;;;23.77;17.25;;;;;;;;;;5085109;28;20031;-77
2022/05/06 12:15:32;;;;;;;22.30;15.60;;;;;;;;;;5082541;28;20548;-76
2022/05/06 12:18:06;;;;;;;28.48;17.48;;;;;;;;;;5084604;28;20469;-76
2022/05/06 12:20:33;;;;;;;21.85;17.73;;;;;;;;;;5078791;28;20032;-76
2022/05/06 12:22:59;;;;;;;24.30;18.58;;;;;;;;;;5082905;28;20039;-77
2022/05/06 12:25:26;;;;;;;21.88;17.58;;;;;;;;;;5082011;28;20349;-77
2022/05/06 12:28:05;;;;;;;23.60;17.75;;;;;;;;;;5087982;28;20069;-75
2022/05/06 12:30:32;;;;;;;24.70;18.50;;;;;;;;;;5084140;28;20354;-76
2022/05/06 12:33:03;;;;;;;21.10;16.25;;;;;;;;;;5082514;28;20097;-75
2022/05/06 12:35:29;;;;;;;21.45;15.18;;;;;;;;;;5080223;28;20027;-76
2022/05/06 12:38:00;;;;;;;36.03;17.58;;;;;;;;;;5080615;28;20032;-76
2022/05/06 12:40:33;;;;;;;20.88;16.38;;;;;;;;;;5082698;28;20321;-76
2022/05/06 12:43:05;;;;;;;21.38;16.42;;;;;;;;;;5088331;28;20035;-75
2022/05/06 12:45:31;;;;;;;23.48;18.10;;;;;;;;;;5086875;28;20055;-74
2022/05/06 12:50:42;;;;;;;22.70;18.23;;;;;;;;;;5081587;28;20121;-75
2022/05/06 12:53:08;;;;;;;20.92;16.45;;;;;;;;;;5088010;28;20040;-76
2022/05/06 12:55:34;;;;;;;23.75;17.38;;;;;;;;;;5077530;28;20067;-78
2022/05/06 12:58:00;;;;;;;23.60;17.13;;;;;;;;;;5089482;28;20048;-75
2022/05/06 13:00:27;;;;;;;22.48;17.90;;;;;;;;;;5083802;28;20029;-76
2022/05/06 13:02:53;;;;;;;25.35;17.60;;;;;;;;;;5077055;28;20493;-75
2022/05/06 13:05:19;;;;;;;23.95;16.50;;;;;;;;;;5084532;28;20093;-76
2022/05/06 13:07:45;;;;;;;19.05;15.30;;;;;;;;;;5088083;28;20039;-75
2022/05/06 13:10:11;;;;;;;20.27;15.93;;;;;;;;;;5074507;28;20081;-74
2022/05/06 13:12:37;;;;;;;20.15;15.80;;;;;;;;;;5085189;28;20132;-77
2022/05/06 13:15:04;;;;;;;24.73;17.20;;;;;;;;;;5091323;28;20032;-77
2022/05/06 13:17:30;;;;;;;17.23;14.20;;;;;;;;;;5090813;28;20449;-76
2022/05/06 13:19:56;;;;;;;20.48;15.38;;;;;;;;;;5090964;28;20224;-76
2022/05/06 13:22:22;;;;;;;24.15;14.55;;;;;;;;;;5086755;28;20028;-77
2022/05/06 13:24:48;;;;;;;22.52;15.80;;;;;;;;;;5073201;28;20024;-75
2022/05/06 13:27:14;;;;;;;19.27;14.00;;;;;;;;;;5068666;28;20132;-76
2022/05/06 13:29:41;;;;;;;18.75;14.07;;;;;;;;;;5090238;28;20024;-75
2022/05/06 13:32:07;;;;;;;17.02;12.95;;;;;;;;;;5106065;28;20115;-73
2022/05/06 13:34:33;;;;;;;15.95;13.13;;;;;;;;;;5082476;28;20056;-75
2022/05/06 13:37:03;;;;;;;21.35;13.23;;;;;;;;;;5085757;28;20474;-76
2022/05/06 13:39:29;;;;;;;17.58;13.40;;;;;;;;;;5082127;28;20021;-76
2022/05/06 13:41:55;;;;;;;18.88;14.00;;;;;;;;;;5105978;28;20132;-75
2022/05/06 13:44:21;;;;;;;18.35;13.25;;;;;;;;;;5091669;28;20043;-76
2022/05/06 13:46:50;;;;;;;17.98;13.77;;;;;;;;;;5090153;28;20031;-74
2022/05/06 13:49:16;;;;;;;17.05;13.55;;;;;;;;;;5082796;28;20054;-74
2022/05/06 13:51:43;;;;;;;19.27;13.30;;;;;;;;;;5088876;28;20024;-75
2022/05/06 13:54:09;;;;;;;16.25;13.00;;;;;;;;;;5096798;28;20040;-75
2022/05/06 13:59:20;;;;;;;14.18;11.57;;;;;;;;;;5082380;28;20195;-75
2022/05/06 14:01:47;;;;;;;15.38;12.93;;;;;;;;;;5084494;28;20035;-75
2022/05/06 14:04:13;;;;;;;14.20;12.70;;;;;;;;;;5081324;28;20036;-75
2022/05/06 14:06:40;;;;;;;15.43;13.55;;;;;;;;;;5080755;28;20035;-75
2022/05/06 14:09:06;;;;;;;16.08;12.88;;;;;;;;;;5082185;28;20043;-75
2022/05/06 14:11:32;;;;;;;16.70;12.43;;;;;;;;;;5082982;28;20035;-73
2022/05/06 14:13:59;;;;;;;17.25;12.23;;;;;;;;;;5083320;28;20789;-74
2022/05/06 14:16:26;;;;;;;18.48;11.57;;;;;;;;;;5086742;28;20031;-74
2022/05/06 14:18:53;;;;;;;12.82;10.93;;;;;;;;;;5083449;28;20127;-74
2022/05/06 14:21:19;;;;;;;15.32;10.57;;;;;;;;;;5086437;28;20056;-75
2022/05/06 14:23:46;;;;;;;34.67;10.40;;;;;;;;;;5070907;28;20153;-75
2022/05/06 14:26:12;;;;;;;15.95;9.52;;;;;;;;;;5083257;28;20131;-75
2022/05/06 14:28:38;;;;;;;11.60;10.00;;;;;;;;;;5086116;28;20053;-75
2022/05/06 14:31:04;;;;;;;17.08;12.68;;;;;;;;;;5093494;28;20039;-74
2022/05/06 14:33:30;;;;;;;16.17;11.35;;;;;;;;;;5085616;28;20040;-74
2022/05/06 14:35:56;;;;;;;15.43;10.25;;;;;;;;;;5085264;28;20028;-74
2022/05/06 14:38:22;;;;;;;14.55;11.27;;;;;;;;;;5092282;28;20051;-75
2022/05/06 14:40:49;;;;;;;14.57;11.93;;;;;;;;;;5096524;28;20043;-75
2022/05/06 14:43:15;;;;;;;16.88;11.68;;;;;;;;;;5089526;28;20044;-75
2022/05/06 14:45:41;;;;;;;16.65;10.85;;;;;;;;;;5090322;28;20031;-76
2022/05/06 14:48:07;;;;;;;17.85;11.05;;;;;;;;;;5092253;28;20028;-73
2022/05/06 14:50:33;;;;;;;13.00;10.95;;;;;;;;;;5091619;28;20119;-75
2022/05/06 14:53:00;;;;;;;14.25;10.48;;;;;;;;;;5090605;28;20032;-74
2022/05/06 14:55:26;;;;;;;13.88;10.85;;;;;;;;;;5090321;28;20040;-73
2022/05/06 14:57:52;;;;;;;16.42;12.00;;;;;;;;;;5091738;28;20054;-74
2022/05/06 15:00:19;;;;;;;19.50;10.38;;;;;;;;;;5090857;28;20039;-74
2022/05/06 15:02:45;;;;;;;19.38;12.48;;;;;;;;;;5090704;28;20040;-76
2022/05/06 15:05:11;;;;;;;14.05;12.23;;;;;;;;;;5091941;28;20062;-75
2022/05/06 15:07:37;;;;;;;15.75;12.10;;;;;;;;;;5091877;28;20207;-76
2022/05/06 15:10:04;;;;;;;15.98;9.90;;;;;;;;;;5092085;28;20044;-75